sensor_id;sensor_type;location;lat;lon;timestamp;P1;durP1;ratioP1;P2;durP2;ratioP2
35592;SDS011;64447;52.140;5.602;2023-07-31T03:28:22;22.73;;;10.68;;
35592;SDS011;64447;52.140;5.602;2023-07-31T03:30:48;27.95;;;12.57;;
35592;SDS011;64447;52.140;5.602;2023-07-31T03:33:13;31.23;;;12.50;;
35592;SDS011;64447;52.140;5.602;2023-07-31T03:39:01;28.73;;;11.77;;
35592;SDS011;64447;52.140;5.602;2023-07-31T03:41:26;27.57;;;11.20;;
35592;SDS011;64447;52.140;5.602;2023-07-31T03:43:52;27.35;;;11.65;;
35592;SDS011;64447;52.140;5.602;2023-07-31T03:46:17;27.10;;;11.50;;
35592;SDS011;64447;52.140;5.602;2023-07-31T03:48:43;28.17;;;11.63;;
35592;SDS011;64447;52.140;5.602;2023-07-31T03:51:09;27.10;;;11.27;;
35592;SDS011;64447;52.140;5.602;2023-07-31T03:53:34;25.92;;;10.77;;
35592;SDS011;64447;52.140;5.602;2023-07-31T03:56:00;27.43;;;11.67;;
35592;SDS011;64447;52.140;5.602;2023-07-31T03:58:25;23.92;;;11.27;;
35592;SDS011;64447;52.140;5.602;2023-07-31T04:00:51;25.27;;;10.20;;
35592;SDS011;64447;52.140;5.602;2023-07-31T04:03:17;25.55;;;11.70;;
35592;SDS011;64447;52.140;5.602;2023-07-31T04:09:04;25.50;;;11.30;;
35592;SDS011;64447;52.140;5.602;2023-07-31T04:11:30;21.73;;;11.48;;
35592;SDS011;64447;52.140;5.602;2023-07-31T04:13:55;26.33;;;10.53;;
35592;SDS011;64447;52.140;5.602;2023-07-31T04:16:21;20.70;;;10.52;;
35592;SDS011;64447;52.140;5.602;2023-07-31T04:18:47;24.07;;;10.90;;
35592;SDS011;64447;52.140;5.602;2023-07-31T04:21:12;21.40;;;10.80;;
35592;SDS011;64447;52.140;5.602;2023-07-31T04:23:38;25.30;;;11.50;;
35592;SDS011;64447;52.140;5.602;2023-07-31T04:26:03;22.73;;;10.43;;
35592;SDS011;64447;52.140;5.602;2023-07-31T04:28:29;26.23;;;10.80;;
35592;SDS011;64447;52.140;5.602;2023-07-31T04:30:56;22.83;;;10.40;;
35592;SDS011;64447;52.140;5.602;2023-07-31T04:33:22;28.23;;;11.40;;
35592;SDS011;64447;52.140;5.602;2023-07-31T07:40:21;10.75;;;7.53;;
35592;SDS011;64447;52.140;5.602;2023-07-31T07:42:47;9.93;;;7.57;;
35592;SDS011;64447;52.140;5.602;2023-07-31T07:45:12;9.77;;;6.97;;
35592;SDS011;64447;52.140;5.602;2023-07-31T07:47:40;8.30;;;6.70;;
35592;SDS011;64447;52.140;5.602;2023-07-31T07:50:06;10.68;;;7.40;;
35592;SDS011;64447;52.140;5.602;2023-07-31T07:55:54;9.85;;;7.00;;
35592;SDS011;64447;52.140;5.602;2023-07-31T07:58:19;8.45;;;7.15;;
35592;SDS011;64447;52.140;5.602;2023-07-31T08:00:49;9.23;;;7.57;;
35592;SDS011;64447;52.140;5.602;2023-07-31T08:03:16;9.82;;;7.00;;
35592;SDS011;64447;52.140;5.602;2023-07-31T08:05:42;9.52;;;6.95;;
35592;SDS011;64447;52.140;5.602;2023-07-31T08:08:07;7.50;;;6.40;;
35592;SDS011;64447;52.140;5.602;2023-07-31T08:10:33;5.97;;;5.32;;
35592;SDS011;64447;52.140;5.602;2023-07-31T08:12:58;6.70;;;5.93;;
35592;SDS011;64447;52.140;5.602;2023-07-31T08:15:24;7.18;;;5.65;;
35592;SDS011;64447;52.140;5.602;2023-07-31T08:17:50;7.30;;;5.87;;
35592;SDS011;64447;52.140;5.602;2023-07-31T08:20:15;7.05;;;5.97;;
35592;SDS011;64447;52.140;5.602;2023-07-31T08:26:03;7.43;;;6.32;;
35592;SDS011;64447;52.140;5.602;2023-07-31T08:28:28;6.93;;;5.90;;
35592;SDS011;64447;52.140;5.602;2023-07-31T08:30:54;7.40;;;6.25;;
35592;SDS011;64447;52.140;5.602;2023-07-31T08:33:19;9.40;;;7.07;;
35592;SDS011;64447;52.140;5.602;2023-07-31T08:35:45;8.38;;;6.75;;
35592;SDS011;64447;52.140;5.602;2023-07-31T08:38:11;7.40;;;6.53;;
35592;SDS011;64447;52.140;5.602;2023-07-31T08:40:37;6.45;;;5.78;;
35592;SDS011;64447;52.140;5.602;2023-07-31T08:43:03;8.40;;;6.00;;
35592;SDS011;64447;52.140;5.602;2023-07-31T08:45:29;5.90;;;5.30;;
35592;SDS011;64447;52.140;5.602;2023-07-31T08:47:56;6.18;;;5.57;;
35592;SDS011;64447;52.140;5.602;2023-07-31T08:50:23;6.07;;;5.47;;
35592;SDS011;64447;52.140;5.602;2023-07-31T08:56:11;6.45;;;5.18;;
35592;SDS011;64447;52.140;5.602;2023-07-31T08:58:38;5.20;;;4.70;;
35592;SDS011;64447;52.140;5.602;2023-07-31T09:01:04;5.18;;;4.63;;
35592;SDS011;64447;52.140;5.602;2023-07-31T09:03:33;5.65;;;5.15;;
35592;SDS011;64447;52.140;5.602;2023-07-31T09:06:00;5.97;;;5.38;;
35592;SDS011;64447;52.140;5.602;2023-07-31T09:08:30;6.28;;;5.28;;
35592;SDS011;64447;52.140;5.602;2023-07-31T09:10:59;5.95;;;5.45;;
35592;SDS011;64447;52.140;5.602;2023-07-31T09:13:27;6.22;;;5.63;;
35592;SDS011;64447;52.140;5.602;2023-07-31T09:15:54;6.30;;;5.80;;
35592;SDS011;64447;52.140;5.602;2023-07-31T09:18:20;6.22;;;5.68;;
35592;SDS011;64447;52.140;5.602;2023-07-31T09:21:00;5.85;;;5.35;;
35592;SDS011;64447;52.140;5.602;2023-07-31T09:26:16;6.22;;;5.63;;
35592;SDS011;64447;52.140;5.602;2023-07-31T09:28:54;5.93;;;5.32;;
35592;SDS011;64447;52.140;5.602;2023-07-31T09:31:39;5.20;;;4.70;;
35592;SDS011;64447;52.140;5.602;2023-07-31T09:34:08;5.10;;;4.63;;
35592;SDS011;64447;52.140;5.602;2023-07-31T09:36:47;6.30;;;5.47;;
35592;SDS011;64447;52.140;5.602;2023-07-31T09:39:16;6.32;;;5.25;;
35592;SDS011;64447;52.140;5.602;2023-07-31T09:41:44;6.35;;;5.75;;
35592;SDS011;64447;52.140;5.602;2023-07-31T09:44:11;7.18;;;5.50;;
35592;SDS011;64447;52.140;5.602;2023-07-31T09:46:37;6.78;;;6.07;;
35592;SDS011;64447;52.140;5.602;2023-07-31T09:49:06;6.25;;;5.65;;
35592;SDS011;64447;52.140;5.602;2023-07-31T09:51:34;6.93;;;6.25;;
35592;SDS011;64447;52.140;5.602;2023-07-31T09:56:42;7.30;;;6.60;;
35592;SDS011;64447;52.140;5.602;2023-07-31T09:59:14;6.73;;;5.97;;
35592;SDS011;64447;52.140;5.602;2023-07-31T10:01:41;7.55;;;6.72;;
35592;SDS011;64447;52.140;5.602;2023-07-31T10:04:09;6.80;;;5.40;;
35592;SDS011;64447;52.140;5.602;2023-07-31T10:06:36;8.18;;;5.97;;
35592;SDS011;64447;52.140;5.602;2023-07-31T10:09:03;7.85;;;6.75;;
35592;SDS011;64447;52.140;5.602;2023-07-31T10:11:31;6.93;;;5.80;;
35592;SDS011;64447;52.140;5.602;2023-07-31T10:14:09;6.70;;;5.33;;
35592;SDS011;64447;52.140;5.602;2023-07-31T10:16:37;6.32;;;5.70;;
35592;SDS011;64447;52.140;5.602;2023-07-31T10:19:04;9.90;;;6.40;;
35592;SDS011;64447;52.140;5.602;2023-07-31T10:21:31;6.70;;;5.97;;
35592;SDS011;64447;52.140;5.602;2023-07-31T10:24:02;6.68;;;5.97;;
35592;SDS011;64447;52.140;5.602;2023-07-31T10:26:30;8.32;;;6.18;;
35592;SDS011;64447;52.140;5.602;2023-07-31T10:28:58;7.28;;;6.57;;
35592;SDS011;64447;52.140;5.602;2023-07-31T10:31:25;8.30;;;7.25;;
35592;SDS011;64447;52.140;5.602;2023-07-31T10:33:53;8.13;;;7.30;;
35592;SDS011;64447;52.140;5.602;2023-07-31T10:36:20;10.18;;;8.15;;
35592;SDS011;64447;52.140;5.602;2023-07-31T10:38:49;9.70;;;8.35;;
35592;SDS011;64447;52.140;5.602;2023-07-31T10:41:18;9.73;;;7.63;;
35592;SDS011;64447;52.140;5.602;2023-07-31T10:43:45;10.32;;;8.50;;
35592;SDS011;64447;52.140;5.602;2023-07-31T10:46:12;9.57;;;8.57;;
35592;SDS011;64447;52.140;5.602;2023-07-31T10:48:39;11.02;;;8.60;;
35592;SDS011;64447;52.140;5.602;2023-07-31T12:42:08;6.20;;;4.55;;
35592;SDS011;64447;52.140;5.602;2023-07-31T12:44:34;5.38;;;4.80;;
35592;SDS011;64447;52.140;5.602;2023-07-31T12:47:00;4.47;;;4.00;;
35592;SDS011;64447;52.140;5.602;2023-07-31T12:49:25;5.18;;;4.40;;
35592;SDS011;64447;52.140;5.602;2023-07-31T12:51:51;5.22;;;4.72;;
35592;SDS011;64447;52.140;5.602;2023-07-31T12:54:16;5.13;;;4.63;;
35592;SDS011;64447;52.140;5.602;2023-07-31T12:56:42;5.22;;;4.72;;
35592;SDS011;64447;52.140;5.602;2023-07-31T12:59:08;7.20;;;6.15;;
35592;SDS011;64447;52.140;5.602;2023-07-31T13:01:34;7.70;;;5.93;;
35592;SDS011;64447;52.140;5.602;2023-07-31T13:03:59;7.20;;;6.50;;
35592;SDS011;64447;52.140;5.602;2023-07-31T13:06:25;6.60;;;6.03;;
35592;SDS011;64447;52.140;5.602;2023-07-31T13:14:19;8.00;;;6.57;;
35592;SDS011;64447;52.140;5.602;2023-07-31T13:16:44;8.53;;;6.83;;
35592;SDS011;64447;52.140;5.602;2023-07-31T13:36:48;8.02;;;7.30;;
35592;SDS011;64447;52.140;5.602;2023-07-31T13:39:14;9.87;;;8.87;;
35592;SDS011;64447;52.140;5.602;2023-07-31T13:41:39;8.80;;;8.00;;
35592;SDS011;64447;52.140;5.602;2023-07-31T13:44:05;8.30;;;7.50;;
35592;SDS011;64447;52.140;5.602;2023-07-31T13:46:30;9.07;;;8.15;;
35592;SDS011;64447;52.140;5.602;2023-07-31T13:48:57;8.35;;;7.55;;
35592;SDS011;64447;52.140;5.602;2023-07-31T17:30:36;2.72;;;1.92;;
35592;SDS011;64447;52.140;5.602;2023-07-31T17:33:01;2.80;;;2.47;;
35592;SDS011;64447;52.140;5.602;2023-07-31T17:35:27;2.53;;;2.30;;
35592;SDS011;64447;52.140;5.602;2023-07-31T17:37:52;2.50;;;2.20;;
35592;SDS011;64447;52.140;5.602;2023-07-31T17:40:18;2.78;;;2.58;;
35592;SDS011;64447;52.140;5.602;2023-07-31T17:42:43;2.40;;;2.20;;
35592;SDS011;64447;52.140;5.602;2023-07-31T17:45:09;2.42;;;2.22;;
35592;SDS011;64447;52.140;5.602;2023-07-31T17:47:35;2.70;;;2.10;;
35592;SDS011;64447;52.140;5.602;2023-07-31T17:50:00;3.05;;;2.30;;
35592;SDS011;64447;52.140;5.602;2023-07-31T17:52:26;4.32;;;2.10;;
35592;SDS011;64447;52.140;5.602;2023-07-31T17:54:52;2.20;;;2.00;;
35592;SDS011;64447;52.140;5.602;2023-07-31T17:57:19;2.22;;;2.03;;
35592;SDS011;64447;52.140;5.602;2023-07-31T17:59:45;2.40;;;1.92;;
35592;SDS011;64447;52.140;5.602;2023-07-31T18:02:11;3.42;;;2.10;;
35592;SDS011;64447;52.140;5.602;2023-07-31T18:04:36;1.87;;;1.73;;
35592;SDS011;64447;52.140;5.602;2023-07-31T18:07:02;3.58;;;1.75;;
35592;SDS011;64447;52.140;5.602;2023-07-31T18:09:28;2.23;;;1.73;;
35592;SDS011;64447;52.140;5.602;2023-07-31T18:11:53;2.60;;;1.65;;
35592;SDS011;64447;52.140;5.602;2023-07-31T18:14:19;1.85;;;1.52;;
35592;SDS011;64447;52.140;5.602;2023-07-31T18:16:49;2.90;;;1.70;;
35592;SDS011;64447;52.140;5.602;2023-07-31T18:19:15;3.38;;;2.05;;
35592;SDS011;64447;52.140;5.602;2023-07-31T18:21:40;1.93;;;1.60;;
35592;SDS011;64447;52.140;5.602;2023-07-31T18:24:06;1.85;;;1.67;;
35592;SDS011;64447;52.140;5.602;2023-07-31T18:26:31;2.23;;;1.90;;
35592;SDS011;64447;52.140;5.602;2023-07-31T18:28:57;2.70;;;1.75;;
35592;SDS011;64447;52.140;5.602;2023-07-31T18:31:23;2.13;;;1.50;;
35592;SDS011;64447;52.140;5.602;2023-07-31T18:33:48;2.17;;;1.60;;
35592;SDS011;64447;52.140;5.602;2023-07-31T18:58:08;2.50;;;2.30;;
35592;SDS011;64447;52.140;5.602;2023-07-31T19:00:34;3.13;;;2.63;;
35592;SDS011;64447;52.140;5.602;2023-07-31T19:02:59;4.87;;;3.63;;
35592;SDS011;64447;52.140;5.602;2023-07-31T19:05:25;4.00;;;3.10;;
35592;SDS011;64447;52.140;5.602;2023-07-31T19:07:51;3.63;;;3.00;;
35592;SDS011;64447;52.140;5.602;2023-07-31T19:10:16;3.22;;;2.92;;
35592;SDS011;64447;52.140;5.602;2023-07-31T19:12:42;4.13;;;3.00;;
35592;SDS011;64447;52.140;5.602;2023-07-31T19:15:08;3.80;;;2.97;;
35592;SDS011;64447;52.140;5.602;2023-07-31T19:17:35;3.83;;;2.90;;
35592;SDS011;64447;52.140;5.602;2023-07-31T19:20:03;6.25;;;3.17;;
35592;SDS011;64447;52.140;5.602;2023-07-31T19:22:30;3.70;;;3.30;;
35592;SDS011;64447;52.140;5.602;2023-07-31T19:24:56;4.57;;;2.88;;
35592;SDS011;64447;52.140;5.602;2023-07-31T19:27:22;3.63;;;2.90;;
35592;SDS011;64447;52.140;5.602;2023-07-31T19:29:47;3.10;;;2.80;;
35592;SDS011;64447;52.140;5.602;2023-07-31T19:32:13;4.27;;;3.00;;
35592;SDS011;64447;52.140;5.602;2023-07-31T19:34:40;4.43;;;3.13;;
35592;SDS011;64447;52.140;5.602;2023-07-31T19:37:05;5.25;;;3.40;;
35592;SDS011;64447;52.140;5.602;2023-07-31T19:39:31;4.27;;;3.03;;
35592;SDS011;64447;52.140;5.602;2023-07-31T19:41:58;3.63;;;3.15;;
35592;SDS011;64447;52.140;5.602;2023-07-31T19:44:24;4.38;;;2.78;;
35592;SDS011;64447;52.140;5.602;2023-07-31T19:46:50;5.30;;;2.73;;
35592;SDS011;64447;52.140;5.602;2023-07-31T19:49:15;4.47;;;2.97;;
35592;SDS011;64447;52.140;5.602;2023-07-31T19:51:41;3.80;;;3.27;;
35592;SDS011;64447;52.140;5.602;2023-07-31T19:54:07;5.00;;;3.20;;
35592;SDS011;64447;52.140;5.602;2023-07-31T19:56:32;4.03;;;3.40;;
35592;SDS011;64447;52.140;5.602;2023-07-31T19:58:58;5.30;;;3.40;;
35592;SDS011;64447;52.140;5.602;2023-07-31T20:01:24;4.73;;;3.23;;
35592;SDS011;64447;52.140;5.602;2023-07-31T20:03:50;4.38;;;3.47;;
35592;SDS011;64447;52.140;5.602;2023-07-31T20:06:16;3.80;;;3.20;;
35592;SDS011;64447;52.140;5.602;2023-07-31T20:08:42;4.83;;;3.27;;
35592;SDS011;64447;52.140;5.602;2023-07-31T20:11:07;4.30;;;3.00;;
35592;SDS011;64447;52.140;5.602;2023-07-31T20:13:34;3.90;;;3.45;;
35592;SDS011;64447;52.140;5.602;2023-07-31T20:16:00;4.63;;;3.65;;
35592;SDS011;64447;52.140;5.602;2023-07-31T20:18:26;6.82;;;3.88;;
35592;SDS011;64447;52.140;5.602;2023-07-31T20:20:52;4.32;;;3.50;;
35592;SDS011;64447;52.140;5.602;2023-07-31T20:23:18;5.97;;;3.83;;
35592;SDS011;64447;52.140;5.602;2023-07-31T20:25:44;6.93;;;3.63;;
35592;SDS011;64447;52.140;5.602;2023-07-31T20:28:10;6.05;;;3.95;;
35592;SDS011;64447;52.140;5.602;2023-07-31T20:30:36;4.60;;;3.83;;
35592;SDS011;64447;52.140;5.602;2023-07-31T20:33:01;5.90;;;4.50;;
35592;SDS011;64447;52.140;5.602;2023-07-31T20:35:27;4.80;;;4.07;;
35592;SDS011;64447;52.140;5.602;2023-07-31T20:37:53;4.95;;;3.85;;
35592;SDS011;64447;52.140;5.602;2023-07-31T20:40:18;6.40;;;4.20;;
35592;SDS011;64447;52.140;5.602;2023-07-31T20:42:53;7.70;;;4.50;;
35592;SDS011;64447;52.140;5.602;2023-07-31T20:45:25;5.47;;;4.40;;
35592;SDS011;64447;52.140;5.602;2023-07-31T20:47:51;5.50;;;4.60;;
35592;SDS011;64447;52.140;5.602;2023-07-31T20:54:19;5.95;;;4.60;;
35592;SDS011;64447;52.140;5.602;2023-07-31T20:56:45;8.60;;;5.10;;
35592;SDS011;64447;52.140;5.602;2023-07-31T20:59:10;6.25;;;5.25;;
35592;SDS011;64447;52.140;5.602;2023-07-31T21:01:36;7.77;;;5.40;;
35592;SDS011;64447;52.140;5.602;2023-07-31T21:04:02;7.30;;;5.43;;
35592;SDS011;64447;52.140;5.602;2023-07-31T21:06:29;6.90;;;5.10;;
35592;SDS011;64447;52.140;5.602;2023-07-31T21:08:55;8.00;;;6.00;;
35592;SDS011;64447;52.140;5.602;2023-07-31T21:11:22;6.30;;;5.40;;
35592;SDS011;64447;52.140;5.602;2023-07-31T21:13:48;7.75;;;5.97;;
35592;SDS011;64447;52.140;5.602;2023-07-31T21:16:15;6.25;;;5.50;;
35592;SDS011;64447;52.140;5.602;2023-07-31T21:18:40;6.50;;;5.77;;
35592;SDS011;64447;52.140;5.602;2023-07-31T21:21:06;7.57;;;5.70;;
35592;SDS011;64447;52.140;5.602;2023-07-31T21:23:31;7.28;;;4.90;;
35592;SDS011;64447;52.140;5.602;2023-07-31T21:25:57;6.93;;;5.50;;
35592;SDS011;64447;52.140;5.602;2023-07-31T21:28:22;7.80;;;4.90;;
35592;SDS011;64447;52.140;5.602;2023-07-31T21:30:48;5.30;;;4.47;;
35592;SDS011;64447;52.140;5.602;2023-07-31T21:33:14;7.28;;;4.88;;
35592;SDS011;64447;52.140;5.602;2023-07-31T21:39:39;6.13;;;4.15;;
35592;SDS011;64447;52.140;5.602;2023-07-31T21:42:05;6.27;;;4.20;;
35592;SDS011;64447;52.140;5.602;2023-07-31T21:44:32;5.53;;;3.70;;
35592;SDS011;64447;52.140;5.602;2023-07-31T21:46:57;6.20;;;4.20;;
35592;SDS011;64447;52.140;5.602;2023-07-31T21:49:23;6.53;;;4.37;;
35592;SDS011;64447;52.140;5.602;2023-07-31T21:51:48;5.20;;;4.40;;
35592;SDS011;64447;52.140;5.602;2023-07-31T21:54:14;5.50;;;4.30;;
35592;SDS011;64447;52.140;5.602;2023-07-31T21:56:39;7.28;;;4.85;;
35592;SDS011;64447;52.140;5.602;2023-07-31T21:59:05;6.67;;;4.70;;
35592;SDS011;64447;52.140;5.602;2023-07-31T22:01:31;7.47;;;5.75;;
35592;SDS011;64447;52.140;5.602;2023-07-31T22:03:56;7.73;;;5.30;;
35592;SDS011;64447;52.140;5.602;2023-07-31T22:06:22;7.32;;;5.60;;
35592;SDS011;64447;52.140;5.602;2023-07-31T22:08:48;8.87;;;5.37;;
35592;SDS011;64447;52.140;5.602;2023-07-31T22:11:13;6.82;;;5.07;;
35592;SDS011;64447;52.140;5.602;2023-07-31T22:13:39;7.20;;;5.57;;
35592;SDS011;64447;52.140;5.602;2023-07-31T22:16:04;7.00;;;5.60;;
35592;SDS011;64447;52.140;5.602;2023-07-31T22:18:31;8.35;;;5.80;;
35592;SDS011;64447;52.140;5.602;2023-07-31T22:20:56;8.30;;;6.03;;
35592;SDS011;64447;52.140;5.602;2023-07-31T22:23:22;8.37;;;5.67;;
35592;SDS011;64447;52.140;5.602;2023-07-31T22:25:48;7.60;;;5.78;;
35592;SDS011;64447;52.140;5.602;2023-07-31T22:28:13;8.87;;;6.00;;
35592;SDS011;64447;52.140;5.602;2023-07-31T22:30:39;8.75;;;5.93;;
35592;SDS011;64447;52.140;5.602;2023-07-31T22:33:04;8.00;;;6.50;;
35592;SDS011;64447;52.140;5.602;2023-07-31T22:38:51;7.30;;;5.90;;
35592;SDS011;64447;52.140;5.602;2023-07-31T22:41:17;11.67;;;7.00;;
35592;SDS011;64447;52.140;5.602;2023-07-31T22:43:42;9.43;;;6.50;;
35592;SDS011;64447;52.140;5.602;2023-07-31T22:46:08;9.63;;;6.83;;
35592;SDS011;64447;52.140;5.602;2023-07-31T22:48:34;10.52;;;6.75;;
35592;SDS011;64447;52.140;5.602;2023-07-31T22:50:59;8.80;;;6.33;;
35592;SDS011;64447;52.140;5.602;2023-07-31T22:53:25;8.30;;;5.97;;
35592;SDS011;64447;52.140;5.602;2023-07-31T22:55:50;8.57;;;6.17;;
35592;SDS011;64447;52.140;5.602;2023-07-31T22:58:16;10.13;;;6.75;;
35592;SDS011;64447;52.140;5.602;2023-07-31T23:00:42;8.87;;;6.37;;
35592;SDS011;64447;52.140;5.602;2023-07-31T23:03:07;9.30;;;6.50;;
35592;SDS011;64447;52.140;5.602;2023-07-31T23:08:55;10.37;;;7.20;;
35592;SDS011;64447;52.140;5.602;2023-07-31T23:11:21;11.00;;;7.53;;
35592;SDS011;64447;52.140;5.602;2023-07-31T23:13:46;9.67;;;7.03;;
35592;SDS011;64447;52.140;5.602;2023-07-31T23:16:12;8.70;;;6.63;;
35592;SDS011;64447;52.140;5.602;2023-07-31T23:18:37;9.83;;;7.20;;
35592;SDS011;64447;52.140;5.602;2023-07-31T23:21:03;12.82;;;7.18;;
35592;SDS011;64447;52.140;5.602;2023-07-31T23:23:28;9.60;;;6.87;;
35592;SDS011;64447;52.140;5.602;2023-07-31T23:25:54;10.57;;;6.97;;
35592;SDS011;64447;52.140;5.602;2023-07-31T23:28:20;11.00;;;7.27;;
35592;SDS011;64447;52.140;5.602;2023-07-31T23:30:46;9.00;;;6.82;;
35592;SDS011;64447;52.140;5.602;2023-07-31T23:33:12;7.93;;;5.53;;
35592;SDS011;64447;52.140;5.602;2023-07-31T23:38:59;6.75;;;4.65;;
35592;SDS011;64447;52.140;5.602;2023-07-31T23:41:25;6.07;;;4.65;;
35592;SDS011;64447;52.140;5.602;2023-07-31T23:43:52;5.13;;;4.13;;
35592;SDS011;64447;52.140;5.602;2023-07-31T23:46:19;5.32;;;4.60;;
35592;SDS011;64447;52.140;5.602;2023-07-31T23:48:44;5.83;;;4.87;;
35592;SDS011;64447;52.140;5.602;2023-07-31T23:51:10;5.60;;;4.65;;
35592;SDS011;64447;52.140;5.602;2023-07-31T23:53:35;7.37;;;4.63;;
35592;SDS011;64447;52.140;5.602;2023-07-31T23:56:01;5.22;;;3.85;;
35592;SDS011;64447;52.140;5.602;2023-07-31T23:58:27;4.15;;;3.53;;
